ΕΜΥ, Εθνική Μετεωρολογική Υπηρεσία - Δελτία Καιρού, Προγνώσεις

ΑΕΡΟΝΑΥΤΙΛΙΑ

GREEK AIRPORTS CODES

LGAT 151700Z AUTO 17005KT 360V190 //// // ////// 27/10 Q1013 RE//=

EUROPEAN AIRPORTS CODES

LFPO 151700Z 30009KT 270V360 9999 FEW046 BKN066 21/11 Q1017NOSIG=